Time;durP1;ratioP1;P1;durP2;ratioP2;P2;SDS_P1;SDS_P2;PMS_P1;PMS_P2;Temp;Humidity;BMP_temperature;BMP_pressure;BME280_temperature;BME280_humidity;BME280_pressure;Samples;Min_cycle;Max_cycle;Signal;HPM_P1;HPM_P2
2023/10/22 00:01:16;;;;;;;6.45;1.70;;;;;;;;;;4992499;28;20233;-81
2023/10/22 00:03:49;;;;;;;6.68;2.00;;;;;;;;;;4985315;28;20225;-81
2023/10/22 00:06:16;;;;;;;4.20;1.75;;;;;;;;;;4972071;28;20281;-82
2023/10/22 00:08:43;;;;;;;2.65;1.65;;;;;;;;;;4968832;28;20329;-82
2023/10/22 00:11:16;;;;;;;13.77;2.05;;;;;;;;;;4981076;28;20225;-83
2023/10/22 00:13:48;;;;;;;2.97;1.70;;;;;;;;;;4960838;28;20678;-83
2023/10/22 00:16:17;;;;;;;3.05;1.95;;;;;;;;;;4972403;28;20198;-81
2023/10/22 00:18:48;;;;;;;3.90;1.60;;;;;;;;;;4954500;28;20234;-81
2023/10/22 00:21:17;;;;;;;3.03;1.30;;;;;;;;;;4975030;28;20205;-82
2023/10/22 00:23:45;;;;;;;2.28;1.38;;;;;;;;;;4977982;28;20269;-83
2023/10/22 00:26:17;;;;;;;5.18;1.65;;;;;;;;;;4975783;28;20209;-83
2023/10/22 00:28:45;;;;;;;9.60;2.13;;;;;;;;;;4974778;28;20240;-82
2023/10/22 00:31:13;;;;;;;1.63;1.40;;;;;;;;;;4976298;28;20280;-82
2023/10/22 00:33:44;;;;;;;5.25;1.42;;;;;;;;;;4975508;28;20221;-81
2023/10/22 00:36:14;;;;;;;1.60;1.15;;;;;;;;;;4975262;28;20202;-82
2023/10/22 00:38:48;;;;;;;12.73;1.67;;;;;;;;;;4974808;28;20251;-83
2023/10/22 00:41:17;;;;;;;4.30;1.65;;;;;;;;;;4975964;28;20289;-82
2023/10/22 00:43:47;;;;;;;2.47;1.63;;;;;;;;;;4975497;28;20203;-83
2023/10/22 00:46:21;;;;;;;2.00;1.38;;;;;;;;;;4975825;28;20657;-81
2023/10/22 00:48:53;;;;;;;5.20;1.50;;;;;;;;;;4975353;28;20276;-81
2023/10/22 00:51:24;;;;;;;8.50;1.55;;;;;;;;;;4977998;28;20237;-80
2023/10/22 00:53:53;;;;;;;4.18;1.85;;;;;;;;;;4994447;28;20206;-82
2023/10/22 00:56:23;;;;;;;4.40;1.40;;;;;;;;;;4999457;28;20254;-82
2023/10/22 00:58:52;;;;;;;6.32;1.92;;;;;;;;;;4998654;28;20277;-80
2023/10/22 01:01:22;;;;;;;7.00;1.60;;;;;;;;;;5000075;28;20190;-82
2023/10/22 01:03:51;;;;;;;3.05;1.10;;;;;;;;;;4999952;28;20190;-82
2023/10/22 01:06:20;;;;;;;1.50;1.08;;;;;;;;;;4999006;28;20226;-83
2023/10/22 01:08:53;;;;;;;5.82;1.38;;;;;;;;;;4994250;28;20190;-83
2023/10/22 01:11:21;;;;;;;2.35;1.10;;;;;;;;;;4981092;28;20231;-81
2023/10/22 01:13:51;;;;;;;3.55;1.20;;;;;;;;;;4980448;28;20297;-81
2023/10/22 01:16:21;;;;;;;5.60;1.27;;;;;;;;;;4986086;28;20194;-82
2023/10/22 01:18:52;;;;;;;3.42;1.00;;;;;;;;;;4979133;28;20313;-81
2023/10/22 01:21:24;;;;;;;2.53;1.27;;;;;;;;;;4977268;28;20232;-82
2023/10/22 01:23:53;;;;;;;9.25;1.30;;;;;;;;;;4977566;28;20206;-82
2023/10/22 01:26:23;;;;;;;3.95;1.23;;;;;;;;;;4975703;28;20297;-82
2023/10/22 01:28:50;;;;;;;2.08;1.50;;;;;;;;;;4975762;28;20707;-82
2023/10/22 01:31:17;;;;;;;3.55;1.00;;;;;;;;;;4976596;28;20197;-83
2023/10/22 01:33:53;;;;;;;3.22;1.02;;;;;;;;;;4974259;28;20194;-83
2023/10/22 01:36:22;;;;;;;5.40;1.30;;;;;;;;;;4975624;28;20667;-82
2023/10/22 01:38:53;;;;;;;2.13;1.13;;;;;;;;;;4980115;28;20412;-82
2023/10/22 01:41:23;;;;;;;1.27;1.05;;;;;;;;;;4987826;28;20230;-84
2023/10/22 01:43:52;;;;;;;3.50;1.08;;;;;;;;;;4978462;28;20203;-83
2023/10/22 01:46:22;;;;;;;4.07;1.40;;;;;;;;;;4974617;28;20202;-83
2023/10/22 01:48:52;;;;;;;7.35;1.48;;;;;;;;;;4978604;28;20655;-83
2023/10/22 01:51:23;;;;;;;6.30;1.48;;;;;;;;;;4974135;28;20281;-82
2023/10/22 01:53:53;;;;;;;4.88;1.67;;;;;;;;;;4973570;28;20284;-82
2023/10/22 01:56:24;;;;;;;2.95;1.08;;;;;;;;;;4975192;28;20217;-82
2023/10/22 01:58:52;;;;;;;5.10;1.30;;;;;;;;;;4973730;28;20702;-83
2023/10/22 02:01:21;;;;;;;7.25;1.65;;;;;;;;;;4974125;28;20198;-82
2023/10/22 02:03:52;;;;;;;3.25;1.33;;;;;;;;;;4973195;28;20206;-81
2023/10/22 02:06:20;;;;;;;5.97;2.03;;;;;;;;;;4973814;28;20289;-82
2023/10/22 02:08:49;;;;;;;1.52;1.20;;;;;;;;;;4973998;28;20202;-82
2023/10/22 02:11:17;;;;;;;3.50;1.42;;;;;;;;;;4974001;28;20202;-82
2023/10/22 02:13:48;;;;;;;5.97;1.40;;;;;;;;;;4973809;28;20430;-82
2023/10/22 02:16:18;;;;;;;16.65;6.28;;;;;;;;;;4973643;28;20589;-82
2023/10/22 02:18:49;;;;;;;3.38;1.40;;;;;;;;;;4973854;28;20230;-83
2023/10/22 02:21:21;;;;;;;6.20;1.67;;;;;;;;;;4973652;28;20286;-82
2023/10/22 02:23:52;;;;;;;3.85;1.33;;;;;;;;;;4971813;28;20289;-81
2023/10/22 02:26:21;;;;;;;3.60;1.30;;;;;;;;;;4971094;28;20304;-83
2023/10/22 02:28:51;;;;;;;7.97;1.65;;;;;;;;;;4973344;28;20241;-82
2023/10/22 02:31:21;;;;;;;5.88;1.45;;;;;;;;;;4973282;28;20226;-83
2023/10/22 02:33:51;;;;;;;8.07;1.40;;;;;;;;;;4973302;28;20265;-82
2023/10/22 02:36:23;;;;;;;1.83;1.40;;;;;;;;;;4973681;28;20206;-82
2023/10/22 02:38:51;;;;;;;7.55;1.67;;;;;;;;;;4973656;28;20661;-83
2023/10/22 02:41:19;;;;;;;2.35;1.60;;;;;;;;;;4973575;28;20206;-82
2023/10/22 02:43:48;;;;;;;2.70;1.38;;;;;;;;;;4973842;28;20210;-82
2023/10/22 02:46:21;;;;;;;3.92;1.42;;;;;;;;;;4986663;28;20197;-82
2023/10/22 02:48:52;;;;;;;6.45;1.60;;;;;;;;;;4992208;28;20209;-82
2023/10/22 02:51:20;;;;;;;5.35;1.55;;;;;;;;;;4997558;28;20253;-83
2023/10/22 02:53:47;;;;;;;3.20;1.40;;;;;;;;;;4987291;28;20571;-82
2023/10/22 02:56:18;;;;;;;4.28;1.70;;;;;;;;;;4973249;28;20660;-81
2023/10/22 02:58:48;;;;;;;6.40;1.63;;;;;;;;;;4973180;28;20245;-82
2023/10/22 03:01:24;;;;;;;2.17;1.80;;;;;;;;;;4974290;28;20228;-81
2023/10/22 03:03:51;;;;;;;1.60;1.50;;;;;;;;;;4973889;28;20203;-82
2023/10/22 03:06:19;;;;;;;6.00;1.23;;;;;;;;;;4972062;28;20578;-83
2023/10/22 03:08:52;;;;;;;5.82;1.88;;;;;;;;;;4975288;28;20205;-83
2023/10/22 03:11:23;;;;;;;4.20;1.67;;;;;;;;;;4981275;28;20198;-82
2023/10/22 03:13:52;;;;;;;2.00;1.42;;;;;;;;;;4972778;28;20732;-82
2023/10/22 03:16:24;;;;;;;7.93;1.58;;;;;;;;;;4972737;28;20219;-82
2023/10/22 03:18:53;;;;;;;4.68;1.65;;;;;;;;;;4972826;28;20222;-82
2023/10/22 03:21:24;;;;;;;3.42;1.50;;;;;;;;;;4972950;28;20208;-82
2023/10/22 03:23:51;;;;;;;6.40;1.80;;;;;;;;;;4973409;28;20201;-83
2023/10/22 03:26:21;;;;;;;5.88;1.85;;;;;;;;;;4972458;28;20208;-82
2023/10/22 03:28:51;;;;;;;3.38;1.80;;;;;;;;;;4973286;28;20239;-83
2023/10/22 03:31:18;;;;;;;3.35;1.55;;;;;;;;;;4973481;28;20203;-83
2023/10/22 03:33:48;;;;;;;4.38;1.52;;;;;;;;;;4972981;28;20228;-83
2023/10/22 03:36:20;;;;;;;10.70;2.58;;;;;;;;;;4972545;28;20300;-82
2023/10/22 03:38:49;;;;;;;2.03;1.58;;;;;;;;;;4972598;28;20272;-83
2023/10/22 03:41:18;;;;;;;2.65;1.38;;;;;;;;;;4972607;28;20206;-82
2023/10/22 03:43:46;;;;;;;4.82;1.40;;;;;;;;;;4972639;28;20213;-82
2023/10/22 03:46:15;;;;;;;4.18;2.10;;;;;;;;;;4972147;28;20223;-83
2023/10/22 03:48:46;;;;;;;5.00;1.52;;;;;;;;;;4972590;28;20670;-83
2023/10/22 03:51:16;;;;;;;5.93;1.90;;;;;;;;;;4972342;28;20197;-82
2023/10/22 03:53:45;;;;;;;5.90;1.70;;;;;;;;;;4971904;28;20764;-83
2023/10/22 03:56:16;;;;;;;3.72;2.50;;;;;;;;;;4971146;28;20296;-83
2023/10/22 03:58:44;;;;;;;5.30;2.00;;;;;;;;;;4972010;28;20209;-82
2023/10/22 04:01:15;;;;;;;6.03;2.17;;;;;;;;;;4972244;28;20288;-83
2023/10/22 04:03:44;;;;;;;3.53;1.88;;;;;;;;;;4972343;28;20275;-82
2023/10/22 04:06:15;;;;;;;1.73;1.63;;;;;;;;;;4971914;28;20252;-82
2023/10/22 04:08:42;;;;;;;2.90;1.80;;;;;;;;;;4972316;28;20294;-82
2023/10/22 04:11:12;;;;;;;5.45;2.03;;;;;;;;;;4972304;28;20211;-84
2023/10/22 04:13:42;;;;;;;6.18;2.15;;;;;;;;;;4971474;28;20204;-82
2023/10/22 04:16:15;;;;;;;2.53;1.95;;;;;;;;;;4971425;28;20204;-82
2023/10/22 04:18:42;;;;;;;3.03;2.00;;;;;;;;;;4972134;28;20193;-82
2023/10/22 04:21:17;;;;;;;7.28;2.47;;;;;;;;;;4971882;28;20217;-84
2023/10/22 04:23:52;;;;;;;4.30;2.30;;;;;;;;;;4971782;28;20209;-82
2023/10/22 04:26:21;;;;;;;6.53;2.40;;;;;;;;;;4972078;28;20209;-82
2023/10/22 04:28:51;;;;;;;8.32;1.77;;;;;;;;;;4971865;28;20721;-82
2023/10/22 04:31:24;;;;;;;2.33;1.80;;;;;;;;;;4972229;28;20214;-81
2023/10/22 04:33:54;;;;;;;3.22;2.35;;;;;;;;;;4971418;28;20611;-82
2023/10/22 04:36:27;;;;;;;3.22;2.20;;;;;;;;;;4971690;28;20229;-84
2023/10/22 04:38:57;;;;;;;4.00;1.85;;;;;;;;;;4972141;28;20217;-83
2023/10/22 04:41:26;;;;;;;4.32;1.92;;;;;;;;;;4971973;28;20239;-81
2023/10/22 04:43:53;;;;;;;6.25;2.72;;;;;;;;;;4971725;28;20218;-82
2023/10/22 04:46:21;;;;;;;3.90;2.58;;;;;;;;;;4971866;28;20667;-82
2023/10/22 04:48:54;;;;;;;6.25;2.05;;;;;;;;;;4971700;28;20296;-84
2023/10/22 04:51:21;;;;;;;5.32;2.13;;;;;;;;;;4972315;28;20240;-81
2023/10/22 04:53:50;;;;;;;7.38;2.63;;;;;;;;;;4972556;28;20292;-81
2023/10/22 04:56:18;;;;;;;4.35;2.45;;;;;;;;;;4972085;28;20306;-82
2023/10/22 04:58:49;;;;;;;5.88;2.58;;;;;;;;;;4971889;28;20210;-82
2023/10/22 05:01:22;;;;;;;6.82;2.70;;;;;;;;;;4976985;28;20487;-82
2023/10/22 05:03:49;;;;;;;5.15;2.33;;;;;;;;;;4981358;28;20206;-82
2023/10/22 05:06:18;;;;;;;3.15;2.63;;;;;;;;;;4972128;28;20196;-82
2023/10/22 05:08:47;;;;;;;4.25;2.33;;;;;;;;;;4973556;28;20213;-83
2023/10/22 05:11:18;;;;;;;2.00;1.80;;;;;;;;;;4974186;28;20199;-82
2023/10/22 05:13:46;;;;;;;5.20;2.28;;;;;;;;;;4974725;28;20298;-83
2023/10/22 05:16:16;;;;;;;2.00;1.75;;;;;;;;;;4975231;28;20233;-84
2023/10/22 05:18:45;;;;;;;3.05;1.80;;;;;;;;;;4974864;28;20188;-82
2023/10/22 05:21:18;;;;;;;3.60;2.45;;;;;;;;;;4973885;28;20237;-83
2023/10/22 05:23:48;;;;;;;5.13;1.88;;;;;;;;;;4974900;28;20283;-82
2023/10/22 05:26:26;;;;;;;13.15;2.30;;;;;;;;;;4975568;28;20191;-82
2023/10/22 05:28:55;;;;;;;2.75;2.15;;;;;;;;;;4986859;28;20237;-82
2023/10/22 05:31:26;;;;;;;9.20;2.63;;;;;;;;;;4994595;28;20204;-83
2023/10/22 05:33:55;;;;;;;11.43;2.20;;;;;;;;;;4998325;28;20263;-83
2023/10/22 05:36:24;;;;;;;3.13;2.55;;;;;;;;;;4993016;28;20195;-83
2023/10/22 05:38:52;;;;;;;10.68;2.70;;;;;;;;;;4976010;28;20209;-82
2023/10/22 05:41:21;;;;;;;2.97;2.33;;;;;;;;;;4974284;28;20235;-82
2023/10/22 05:43:49;;;;;;;9.35;2.80;;;;;;;;;;4974790;28;20212;-82
2023/10/22 05:46:21;;;;;;;8.77;3.50;;;;;;;;;;4975327;28;20327;-82
2023/10/22 05:48:52;;;;;;;3.10;2.10;;;;;;;;;;4974987;28;20197;-83
2023/10/22 05:51:21;;;;;;;7.78;2.10;;;;;;;;;;4974676;28;20222;-82
2023/10/22 05:53:48;;;;;;;3.13;2.17;;;;;;;;;;4973749;28;20204;-82
2023/10/22 05:56:15;;;;;;;6.43;2.45;;;;;;;;;;4974340;28;20396;-82
2023/10/22 05:58:44;;;;;;;11.88;3.35;;;;;;;;;;4974141;28;20231;-83
2023/10/22 06:01:15;;;;;;;4.53;2.05;;;;;;;;;;4981817;28;20256;-82
2023/10/22 06:03:48;;;;;;;9.02;2.60;;;;;;;;;;4993641;28;20192;-82
2023/10/22 06:06:20;;;;;;;7.40;3.42;;;;;;;;;;4993346;28;20282;-83
2023/10/22 06:08:48;;;;;;;9.32;3.05;;;;;;;;;;4994165;28;20582;-83
2023/10/22 06:11:16;;;;;;;8.15;2.97;;;;;;;;;;4993398;28;20213;-82
2023/10/22 06:13:43;;;;;;;6.97;2.85;;;;;;;;;;4993145;28;20204;-83
2023/10/22 06:16:11;;;;;;;9.75;2.75;;;;;;;;;;4993186;28;20204;-83
2023/10/22 06:18:38;;;;;;;10.93;2.30;;;;;;;;;;4993070;28;20194;-81
2023/10/22 06:21:12;;;;;;;8.88;2.78;;;;;;;;;;4992802;28;20233;-83
2023/10/22 06:23:44;;;;;;;5.68;2.28;;;;;;;;;;4993983;28;20191;-83
2023/10/22 06:26:13;;;;;;;5.93;2.47;;;;;;;;;;4992926;28;20253;-83
2023/10/22 06:28:42;;;;;;;2.65;2.40;;;;;;;;;;4992089;28;20659;-82
2023/10/22 06:31:11;;;;;;;5.53;2.50;;;;;;;;;;4993148;28;20287;-82
2023/10/22 06:33:39;;;;;;;5.80;2.72;;;;;;;;;;4993121;28;20193;-82
2023/10/22 06:36:14;;;;;;;4.15;2.42;;;;;;;;;;4989626;28;20738;-83
2023/10/22 06:38:43;;;;;;;3.15;2.22;;;;;;;;;;4957387;29;20207;-81
2023/10/22 06:41:16;;;;;;;4.18;2.70;;;;;;;;;;4956580;29;20233;-81
2023/10/22 06:43:43;;;;;;;2.72;2.22;;;;;;;;;;4957243;29;20198;-82
2023/10/22 06:46:14;;;;;;;6.57;3.03;;;;;;;;;;4954779;29;20213;-82
2023/10/22 06:48:42;;;;;;;5.63;4.75;;;;;;;;;;4956364;29;20204;-83
2023/10/22 06:51:11;;;;;;;8.35;3.40;;;;;;;;;;4957192;29;20204;-82
2023/10/22 06:53:38;;;;;;;6.70;2.70;;;;;;;;;;4954366;29;20219;-82
2023/10/22 06:56:07;;;;;;;3.63;2.25;;;;;;;;;;4954027;29;20217;-81
2023/10/22 06:58:37;;;;;;;4.85;2.42;;;;;;;;;;4953818;29;20203;-81
2023/10/22 07:01:07;;;;;;;7.00;3.00;;;;;;;;;;4953486;29;20230;-84
2023/10/22 07:03:41;;;;;;;16.13;2.50;;;;;;;;;;4954545;29;20225;-83
2023/10/22 07:06:13;;;;;;;2.97;2.13;;;;;;;;;;4953857;29;20282;-84
2023/10/22 07:08:43;;;;;;;10.07;4.13;;;;;;;;;;4953609;29;20701;-83
2023/10/22 07:11:13;;;;;;;8.38;2.72;;;;;;;;;;4954633;29;20563;-83
2023/10/22 07:13:44;;;;;;;5.38;3.13;;;;;;;;;;4953841;29;20218;-84
2023/10/22 07:16:15;;;;;;;5.25;3.10;;;;;;;;;;4953718;29;20410;-83
2023/10/22 07:18:43;;;;;;;6.72;3.05;;;;;;;;;;4957268;29;20205;-83
2023/10/22 07:21:12;;;;;;;5.78;3.58;;;;;;;;;;4957530;29;20238;-82
2023/10/22 07:23:40;;;;;;;12.27;3.53;;;;;;;;;;4954630;29;20242;-81
2023/10/22 07:26:07;;;;;;;6.65;3.35;;;;;;;;;;4962554;28;20764;-83
2023/10/22 07:28:41;;;;;;;9.98;4.10;;;;;;;;;;4984695;28;20301;-83
2023/10/22 07:31:12;;;;;;;7.40;3.47;;;;;;;;;;4977663;28;20395;-82
2023/10/22 07:33:39;;;;;;;6.88;3.47;;;;;;;;;;4982644;28;20257;-85
2023/10/22 07:36:07;;;;;;;6.65;3.67;;;;;;;;;;4983245;28;20644;-82
2023/10/22 07:38:40;;;;;;;5.50;3.30;;;;;;;;;;4979001;28;20616;-82
2023/10/22 07:41:14;;;;;;;6.22;3.28;;;;;;;;;;4977006;28;20234;-82
2023/10/22 07:43:44;;;;;;;5.18;2.63;;;;;;;;;;4972320;28;20191;-83
2023/10/22 07:46:14;;;;;;;17.92;3.13;;;;;;;;;;4971398;28;20209;-84
2023/10/22 07:48:44;;;;;;;10.23;2.90;;;;;;;;;;4972417;28;20233;-82
2023/10/22 07:51:13;;;;;;;7.47;2.70;;;;;;;;;;4972056;28;20197;-85
2023/10/22 07:54:03;;;;;;;3.05;2.53;;;;;;;;;;4971981;28;20204;-84
2023/10/22 07:56:31;;;;;;;9.65;2.80;;;;;;;;;;4965697;28;20222;-83
2023/10/22 07:59:01;;;;;;;4.13;2.28;;;;;;;;;;4971135;28;20318;-85
2023/10/22 08:01:30;;;;;;;3.45;2.80;;;;;;;;;;4969918;28;20236;-85
2023/10/22 08:04:00;;;;;;;6.15;3.22;;;;;;;;;;4970022;28;20293;-85
2023/10/22 08:06:30;;;;;;;10.05;2.65;;;;;;;;;;4970037;28;20230;-85
2023/10/22 08:09:02;;;;;;;7.60;3.25;;;;;;;;;;4973131;28;20318;-85
2023/10/22 08:11:31;;;;;;;7.70;2.63;;;;;;;;;;4970076;28;20261;-85
2023/10/22 08:14:07;;;;;;;2.88;2.58;;;;;;;;;;4990913;28;20293;-84
2023/10/22 08:16:37;;;;;;;6.35;3.38;;;;;;;;;;4999396;28;20310;-85
2023/10/22 08:19:05;;;;;;;9.77;2.60;;;;;;;;;;4995729;28;20294;-86
2023/10/22 08:21:35;;;;;;;7.10;2.50;;;;;;;;;;4976754;28;20242;-85
2023/10/22 08:24:05;;;;;;;5.75;2.53;;;;;;;;;;4971750;28;20222;-84
2023/10/22 08:26:36;;;;;;;8.80;2.45;;;;;;;;;;4971624;28;20226;-84
2023/10/22 08:29:08;;;;;;;6.28;2.78;;;;;;;;;;4970664;28;20309;-86
2023/10/22 08:31:37;;;;;;;6.03;2.38;;;;;;;;;;4970095;28;20248;-85
2023/10/22 08:34:07;;;;;;;3.15;2.10;;;;;;;;;;4969129;28;20248;-85
2023/10/22 08:36:41;;;;;;;5.65;2.60;;;;;;;;;;4970529;28;20289;-85
2023/10/22 08:39:17;;;;;;;3.33;2.97;;;;;;;;;;4952523;28;20221;-86
2023/10/22 08:41:55;;;;;;;6.78;2.70;;;;;;;;;;4969796;28;20295;-85
2023/10/22 08:44:26;;;;;;;5.18;2.85;;;;;;;;;;4973194;28;20237;-86
2023/10/22 08:46:56;;;;;;;4.35;2.08;;;;;;;;;;4974710;28;20229;-85
2023/10/22 08:49:26;;;;;;;2.38;2.10;;;;;;;;;;4969602;28;20218;-85
2023/10/22 08:51:57;;;;;;;6.63;2.42;;;;;;;;;;4973726;28;20222;-85
2023/10/22 08:54:27;;;;;;;4.22;2.10;;;;;;;;;;4974432;28;20250;-84
2023/10/22 08:56:56;;;;;;;4.30;1.95;;;;;;;;;;4974288;28;20279;-85
2023/10/22 08:59:25;;;;;;;4.43;2.20;;;;;;;;;;4973741;28;20225;-85
2023/10/22 09:01:52;;;;;;;6.05;2.45;;;;;;;;;;4973850;28;20324;-85
2023/10/22 09:04:23;;;;;;;2.03;1.65;;;;;;;;;;4974215;28;20631;-85
2023/10/22 09:06:54;;;;;;;2.92;1.98;;;;;;;;;;4973190;28;20229;-85
2023/10/22 09:09:33;;;;;;;2.67;2.28;;;;;;;;;;4974457;28;20234;-83
2023/10/22 09:12:03;;;;;;;4.13;1.63;;;;;;;;;;4973152;28;20670;-84
2023/10/22 09:14:33;;;;;;;1.75;1.40;;;;;;;;;;4974326;28;20253;-83
2023/10/22 09:17:17;;;;;;;2.13;1.92;;;;;;;;;;4986226;28;20304;-84
2023/10/22 09:19:48;;;;;;;2.10;2.00;;;;;;;;;;4980367;28;20231;-84
2023/10/22 09:22:23;;;;;;;5.22;1.92;;;;;;;;;;4982924;28;20695;-86
2023/10/22 09:24:51;;;;;;;2.75;1.98;;;;;;;;;;4973900;28;20229;-87
2023/10/22 09:27:27;;;;;;;5.25;2.30;;;;;;;;;;4976025;28;20313;-85
2023/10/22 09:29:58;;;;;;;6.10;2.00;;;;;;;;;;4971794;28;20229;-84
2023/10/22 09:32:27;;;;;;;8.77;4.13;;;;;;;;;;4968836;28;20229;-85
2023/10/22 09:34:58;;;;;;;1.75;1.65;;;;;;;;;;4972081;28;20234;-85
2023/10/22 09:37:27;;;;;;;5.70;1.90;;;;;;;;;;4975944;28;21115;-83
2023/10/22 09:39:55;;;;;;;4.63;1.80;;;;;;;;;;4979300;28;20233;-84
2023/10/22 09:42:24;;;;;;;3.90;1.70;;;;;;;;;;4979781;28;20284;-86
2023/10/22 09:44:53;;;;;;;7.88;1.70;;;;;;;;;;4975099;28;20288;-86
2023/10/22 09:47:26;;;;;;;8.40;1.92;;;;;;;;;;4972658;28;20320;-86
2023/10/22 09:50:07;;;;;;;5.68;1.75;;;;;;;;;;4969955;28;20333;-83
2023/10/22 09:52:42;;;;;;;1.98;1.77;;;;;;;;;;4980886;28;20321;-84
2023/10/22 09:55:12;;;;;;;6.15;2.08;;;;;;;;;;4971651;28;20722;-84
2023/10/22 09:57:40;;;;;;;17.98;2.03;;;;;;;;;;4972747;28;20221;-86
2023/10/22 10:00:12;;;;;;;3.65;2.00;;;;;;;;;;4968817;28;20253;-86
2023/10/22 10:02:44;;;;;;;5.68;2.15;;;;;;;;;;4970657;28;20238;-86
2023/10/22 10:05:11;;;;;;;7.85;1.98;;;;;;;;;;4971982;28;20277;-86
2023/10/22 10:07:42;;;;;;;4.95;1.65;;;;;;;;;;4972507;28;20233;-86
2023/10/22 10:10:12;;;;;;;5.72;1.75;;;;;;;;;;4972207;28;20218;-85
2023/10/22 10:12:43;;;;;;;12.63;1.95;;;;;;;;;;4972325;28;20222;-85
2023/10/22 10:15:35;;;;;;;15.43;2.05;;;;;;;;;;4972261;28;20225;-84
2023/10/22 10:18:06;;;;;;;4.50;2.33;;;;;;;;;;4972169;28;20296;-86
2023/10/22 10:20:39;;;;;;;10.63;2.30;;;;;;;;;;4972628;28;20233;-86
2023/10/22 10:23:10;;;;;;;6.43;2.75;;;;;;;;;;4972552;28;20241;-87
2023/10/22 10:25:42;;;;;;;3.72;1.75;;;;;;;;;;4968547;28;20698;-85
2023/10/22 10:28:13;;;;;;;4.45;2.65;;;;;;;;;;4972489;28;20269;-85
2023/10/22 10:30:42;;;;;;;11.20;1.65;;;;;;;;;;4971378;28;20584;-85
2023/10/22 10:33:14;;;;;;;12.35;1.75;;;;;;;;;;4971555;28;20227;-86
2023/10/22 10:35:46;;;;;;;6.43;1.80;;;;;;;;;;4963851;28;20227;-83
2023/10/22 10:38:22;;;;;;;9.10;2.00;;;;;;;;;;4965725;28;20603;-84
2023/10/22 10:40:52;;;;;;;4.97;1.90;;;;;;;;;;4970105;28;20229;-85
2023/10/22 10:43:20;;;;;;;5.82;1.73;;;;;;;;;;4974841;28;20237;-83
2023/10/22 10:46:11;;;;;;;10.63;3.17;;;;;;;;;;4953682;28;20248;-84
2023/10/22 10:48:48;;;;;;;6.20;1.88;;;;;;;;;;4953027;29;20233;-86
2023/10/22 10:51:20;;;;;;;4.20;2.00;;;;;;;;;;4952439;29;20245;-83
2023/10/22 10:54:12;;;;;;;8.77;1.80;;;;;;;;;;4953764;29;20301;-84
2023/10/22 10:56:46;;;;;;;4.75;1.88;;;;;;;;;;4956975;29;20229;-83
2023/10/22 10:59:26;;;;;;;10.68;2.20;;;;;;;;;;4953077;29;20230;-84
2023/10/22 11:01:58;;;;;;;4.60;1.90;;;;;;;;;;4948995;28;20318;-84
2023/10/22 11:04:29;;;;;;;7.38;1.90;;;;;;;;;;4952227;29;20237;-85
2023/10/22 11:07:01;;;;;;;7.38;1.85;;;;;;;;;;4952372;28;20719;-85
2023/10/22 11:09:31;;;;;;;11.90;2.28;;;;;;;;;;4952331;29;20235;-84
2023/10/22 11:12:03;;;;;;;7.30;1.90;;;;;;;;;;4950526;29;20226;-84
2023/10/22 11:14:30;;;;;;;4.72;1.92;;;;;;;;;;4952857;29;20258;-83
2023/10/22 11:17:03;;;;;;;8.80;2.30;;;;;;;;;;4957734;28;20317;-84
2023/10/22 11:19:35;;;;;;;7.03;2.00;;;;;;;;;;4971922;28;20306;-83
2023/10/22 11:22:09;;;;;;;12.70;2.72;;;;;;;;;;4970884;28;20300;-85
2023/10/22 11:24:40;;;;;;;13.27;2.25;;;;;;;;;;4972085;28;20222;-84
2023/10/22 11:27:15;;;;;;;6.80;1.90;;;;;;;;;;4982283;28;20316;-84
2023/10/22 11:29:45;;;;;;;8.68;2.53;;;;;;;;;;4990763;28;20245;-84
2023/10/22 11:32:15;;;;;;;4.03;1.60;;;;;;;;;;4990384;28;20242;-84
2023/10/22 11:34:55;;;;;;;8.90;2.25;;;;;;;;;;4988549;28;20249;-85
2023/10/22 11:37:27;;;;;;;12.25;2.20;;;;;;;;;;4978368;28;20305;-85
2023/10/22 11:39:59;;;;;;;6.70;1.77;;;;;;;;;;4974464;28;20222;-84
2023/10/22 11:42:33;;;;;;;6.15;2.55;;;;;;;;;;4971439;28;20238;-83
2023/10/22 11:45:06;;;;;;;7.82;2.20;;;;;;;;;;4972762;28;20244;-85
2023/10/22 11:47:34;;;;;;;7.88;2.38;;;;;;;;;;4971270;28;20719;-84
2023/10/22 11:50:05;;;;;;;12.63;2.65;;;;;;;;;;4971609;28;20229;-83
2023/10/22 11:52:41;;;;;;;6.47;2.20;;;;;;;;;;4971043;28;20255;-84
2023/10/22 11:55:12;;;;;;;9.60;2.42;;;;;;;;;;4979585;28;20253;-84
2023/10/22 11:57:43;;;;;;;5.07;2.42;;;;;;;;;;4977454;28;20251;-85
2023/10/22 12:00:11;;;;;;;5.22;2.20;;;;;;;;;;4976162;28;20232;-86
2023/10/22 12:02:41;;;;;;;6.78;2.47;;;;;;;;;;4970994;28;20242;-87
2023/10/22 12:05:12;;;;;;;14.43;2.47;;;;;;;;;;4971508;28;20244;-86
2023/10/22 12:07:41;;;;;;;10.48;3.20;;;;;;;;;;4970442;28;20247;-86
2023/10/22 12:10:10;;;;;;;17.48;2.45;;;;;;;;;;4970631;28;20726;-86
2023/10/22 12:12:39;;;;;;;7.32;1.95;;;;;;;;;;4970883;28;20257;-85
2023/10/22 12:15:10;;;;;;;9.38;2.35;;;;;;;;;;4972061;28;20598;-86
2023/10/22 12:17:40;;;;;;;10.43;2.63;;;;;;;;;;4977402;28;20239;-84
2023/10/22 12:20:08;;;;;;;13.25;2.45;;;;;;;;;;4977170;28;20234;-87
2023/10/22 12:22:40;;;;;;;9.55;2.75;;;;;;;;;;4975342;28;20244;-86
2023/10/22 12:25:11;;;;;;;6.18;2.65;;;;;;;;;;4973597;28;20236;-86
2023/10/22 12:27:39;;;;;;;13.68;2.60;;;;;;;;;;4975858;28;20225;-86
2023/10/22 12:30:10;;;;;;;8.60;2.55;;;;;;;;;;4968059;28;20305;-85
2023/10/22 12:32:40;;;;;;;9.18;3.08;;;;;;;;;;4974596;28;20226;-83
2023/10/22 12:35:08;;;;;;;11.85;2.55;;;;;;;;;;4973218;28;20325;-83
2023/10/22 12:37:41;;;;;;;10.93;3.22;;;;;;;;;;4974134;28;20285;-83
2023/10/22 12:40:11;;;;;;;13.73;2.42;;;;;;;;;;4970927;28;20225;-84
2023/10/22 12:42:43;;;;;;;6.10;2.65;;;;;;;;;;4973607;28;20769;-83
2023/10/22 12:45:11;;;;;;;8.02;2.20;;;;;;;;;;4973270;28;20230;-84
2023/10/22 12:47:39;;;;;;;7.75;3.00;;;;;;;;;;4973774;28;20234;-83
2023/10/22 12:50:11;;;;;;;10.85;2.67;;;;;;;;;;4972906;28;20727;-84
2023/10/22 12:52:45;;;;;;;10.60;2.90;;;;;;;;;;4973483;28;20637;-84
2023/10/22 12:55:15;;;;;;;13.05;2.97;;;;;;;;;;4971508;28;20678;-83
2023/10/22 12:57:43;;;;;;;7.47;2.53;;;;;;;;;;4975091;28;20234;-83
2023/10/22 13:00:12;;;;;;;14.05;3.38;;;;;;;;;;4970880;28;20230;-83
2023/10/22 13:02:40;;;;;;;8.10;2.85;;;;;;;;;;4973349;28;20237;-85
2023/10/22 13:05:08;;;;;;;16.13;3.05;;;;;;;;;;4956528;28;20222;-83
2023/10/22 13:07:37;;;;;;;13.75;3.95;;;;;;;;;;4974226;28;20355;-84
2023/10/22 13:10:08;;;;;;;16.90;3.08;;;;;;;;;;4971313;28;20611;-84
2023/10/22 13:12:41;;;;;;;9.10;2.58;;;;;;;;;;4974386;28;20229;-84
2023/10/22 13:15:11;;;;;;;10.32;3.03;;;;;;;;;;4972207;28;20296;-83
2023/10/22 13:17:39;;;;;;;9.10;2.28;;;;;;;;;;4973533;28;20325;-84
2023/10/22 13:20:10;;;;;;;9.95;2.28;;;;;;;;;;4969401;28;20280;-84
2023/10/22 13:22:37;;;;;;;6.53;2.47;;;;;;;;;;4972825;28;20265;-83
2023/10/22 13:25:07;;;;;;;15.07;3.25;;;;;;;;;;4971999;28;20695;-84
2023/10/22 13:27:37;;;;;;;8.48;2.63;;;;;;;;;;4973947;28;20710;-84
2023/10/22 13:30:10;;;;;;;4.15;2.20;;;;;;;;;;4969683;28;20253;-85
2023/10/22 13:32:41;;;;;;;5.72;2.05;;;;;;;;;;4973525;28;20231;-85
2023/10/22 13:35:12;;;;;;;7.25;2.60;;;;;;;;;;4971596;28;20218;-85
2023/10/22 13:37:42;;;;;;;13.15;3.03;;;;;;;;;;4972673;28;20218;-85
2023/10/22 13:40:19;;;;;;;13.27;2.95;;;;;;;;;;4973061;28;20230;-84
2023/10/22 13:42:49;;;;;;;17.10;2.67;;;;;;;;;;4973022;28;20833;-84
2023/10/22 13:45:19;;;;;;;14.57;2.42;;;;;;;;;;4972486;28;20240;-82
2023/10/22 13:47:52;;;;;;;13.52;2.90;;;;;;;;;;4973259;28;20237;-86
2023/10/22 13:50:27;;;;;;;5.25;2.13;;;;;;;;;;4972024;28;20218;-86
2023/10/22 13:52:59;;;;;;;8.85;2.45;;;;;;;;;;4973090;28;20229;-86
2023/10/22 13:55:28;;;;;;;17.35;3.13;;;;;;;;;;4974184;28;20248;-85
2023/10/22 13:57:57;;;;;;;9.02;2.97;;;;;;;;;;4974569;28;20236;-85
2023/10/22 14:00:31;;;;;;;12.18;2.30;;;;;;;;;;4974614;28;20272;-86
2023/10/22 14:03:02;;;;;;;6.78;2.78;;;;;;;;;;4984446;28;20545;-86
2023/10/22 14:05:29;;;;;;;22.02;2.72;;;;;;;;;;4985496;28;20248;-85
2023/10/22 14:07:59;;;;;;;11.90;3.30;;;;;;;;;;4987497;28;20230;-86
2023/10/22 14:10:36;;;;;;;18.27;2.58;;;;;;;;;;4991267;28;20222;-85
2023/10/22 14:13:05;;;;;;;10.05;2.88;;;;;;;;;;4988150;28;20297;-85
2023/10/22 14:15:36;;;;;;;12.27;2.20;;;;;;;;;;4989196;28;20745;-86
2023/10/22 14:18:07;;;;;;;7.00;2.40;;;;;;;;;;4991643;28;20224;-86
2023/10/22 14:20:36;;;;;;;11.77;2.95;;;;;;;;;;4992803;28;20225;-87
2023/10/22 14:23:05;;;;;;;6.38;2.70;;;;;;;;;;4988542;28;20253;-85
2023/10/22 14:25:32;;;;;;;17.48;2.63;;;;;;;;;;4987442;28;20282;-84
2023/10/22 14:28:01;;;;;;;14.23;2.58;;;;;;;;;;4985863;28;20228;-84
2023/10/22 14:30:29;;;;;;;11.40;3.33;;;;;;;;;;4995740;28;20214;-82
2023/10/22 14:32:57;;;;;;;9.05;3.15;;;;;;;;;;4996948;28;20222;-84
2023/10/22 14:35:30;;;;;;;6.15;2.13;;;;;;;;;;4997622;28;20286;-87
2023/10/22 14:37:59;;;;;;;10.02;2.60;;;;;;;;;;4995578;28;20254;-85
2023/10/22 14:40:28;;;;;;;7.05;2.65;;;;;;;;;;4996419;28;20313;-85
2023/10/22 14:42:56;;;;;;;9.63;3.03;;;;;;;;;;4990059;28;20238;-84
2023/10/22 14:45:30;;;;;;;10.32;3.50;;;;;;;;;;4991121;28;20343;-86
2023/10/22 14:48:02;;;;;;;14.88;2.83;;;;;;;;;;4993962;28;20233;-86
2023/10/22 14:50:32;;;;;;;7.60;2.03;;;;;;;;;;4995811;28;20209;-84
2023/10/22 14:53:03;;;;;;;13.80;2.85;;;;;;;;;;4977698;28;20246;-85
2023/10/22 14:55:32;;;;;;;14.07;2.90;;;;;;;;;;4983350;28;20234;-86
2023/10/22 14:58:04;;;;;;;4.80;2.30;;;;;;;;;;4972082;28;20237;-85
2023/10/22 15:00:36;;;;;;;5.45;2.55;;;;;;;;;;4974754;28;20241;-84